createdAt,value
2022-12-04T00:01:39.673Z,-0.43
2022-12-04T00:04:08.272Z,-0.45
2022-12-04T00:06:36.448Z,-0.46
2022-12-04T00:09:05.550Z,-0.49
2022-12-04T00:11:34.295Z,-0.65
2022-12-04T00:14:06.951Z,-0.49
2022-12-04T00:16:36.865Z,-0.45
2022-12-04T00:19:06.428Z,-0.60
2022-12-04T00:21:34.468Z,-0.56
2022-12-04T00:24:02.642Z,-0.54
2022-12-04T00:26:31.677Z,-0.67
2022-12-04T00:28:59.985Z,-0.54
2022-12-04T00:31:29.992Z,-0.53
2022-12-04T00:34:00.596Z,-0.45
2022-12-04T00:36:30.304Z,-0.54
2022-12-04T00:39:00.392Z,-0.47
2022-12-04T00:41:33.898Z,-0.47
2022-12-04T00:44:03.458Z,-0.55
2022-12-04T00:46:31.641Z,-0.58
2022-12-04T00:49:02.631Z,-0.49
2022-12-04T00:51:31.289Z,-0.50
2022-12-04T00:53:59.280Z,-0.52
2022-12-04T00:56:30.452Z,-0.52
2022-12-04T00:59:01.169Z,-0.50
2022-12-04T01:01:30.124Z,-0.46
2022-12-04T01:03:58.257Z,-0.50
2022-12-04T01:06:29.877Z,-0.47
2022-12-04T01:09:00.653Z,-0.51
2022-12-04T01:11:30.368Z,-0.54
2022-12-04T01:13:59.562Z,-0.51
2022-12-04T01:16:30.760Z,-0.58
2022-12-04T01:18:59.075Z,-0.49
2022-12-04T01:21:28.548Z,-0.46
2022-12-04T01:23:56.575Z,-0.50
2022-12-04T01:26:24.834Z,-0.58
2022-12-04T01:28:52.816Z,-0.63
2022-12-04T01:31:22.686Z,-0.49
2022-12-04T01:33:51.876Z,-0.45
2022-12-04T01:36:24.185Z,-0.46
2022-12-04T01:38:54.407Z,-0.49
2022-12-04T01:41:25.571Z,-0.45
2022-12-04T01:44:15.359Z,-0.59
2022-12-04T01:46:44.637Z,-0.62
2022-12-04T01:49:16.590Z,-0.55
2022-12-04T01:51:49.267Z,-0.51
2022-12-04T01:54:28.209Z,-0.53
2022-12-04T01:57:00.625Z,-0.47
2022-12-04T01:59:32.985Z,-0.46
2022-12-04T02:02:04.793Z,-0.53
2022-12-04T02:04:34.940Z,-0.59
2022-12-04T02:07:03.032Z,-0.50
2022-12-04T02:09:33.482Z,-0.50
2022-12-04T02:12:08.703Z,-0.45
2022-12-04T02:14:45.501Z,-0.48
2022-12-04T02:17:22.126Z,-0.43
2022-12-04T02:20:00.225Z,-0.54
2022-12-04T02:22:45.059Z,-0.53
2022-12-04T02:25:25.653Z,-0.61
2022-12-04T02:28:03.882Z,-0.47
2022-12-04T02:30:36.062Z,-0.49
2022-12-04T02:33:09.604Z,-0.49
2022-12-04T02:35:42.303Z,-0.49
2022-12-04T02:38:16.750Z,-0.41
2022-12-04T02:40:52.489Z,-0.65
2022-12-04T02:43:26.362Z,-0.38
2022-12-04T02:46:00.957Z,-0.30
2022-12-04T02:48:32.239Z,-0.61
2022-12-04T02:51:02.910Z,-0.36
2022-12-04T02:53:36.287Z,-0.50
2022-12-04T02:56:10.565Z,-0.33
2022-12-04T02:58:45.654Z,-0.30
2022-12-04T03:01:23.744Z,-0.27
2022-12-04T03:03:57.147Z,-0.35
2022-12-04T03:06:28.289Z,-0.26
2022-12-04T03:09:02.324Z,-0.37
2022-12-04T03:11:35.848Z,-0.26
2022-12-04T03:14:10.754Z,-0.44
2022-12-04T03:16:42.016Z,-0.34
2022-12-04T03:19:14.263Z,-0.25
2022-12-04T03:21:47.520Z,-0.35
2022-12-04T03:24:20.948Z,-0.36
2022-12-04T03:26:52.938Z,-0.35
2022-12-04T03:29:29.554Z,-0.38
2022-12-04T03:32:04.933Z,-0.52
2022-12-04T03:34:40.186Z,-0.38
2022-12-04T03:37:14.625Z,-0.52
2022-12-04T03:39:52.623Z,-0.42
2022-12-04T03:42:26.634Z,-0.49
2022-12-04T03:45:02.908Z,-0.33
2022-12-04T03:47:36.767Z,-0.43
2022-12-04T03:50:10.503Z,-0.35
2022-12-04T03:52:47.664Z,-0.44
2022-12-04T03:55:22.944Z,-0.44
2022-12-04T03:57:53.399Z,-0.54
2022-12-04T04:00:23.951Z,-0.42
2022-12-04T04:02:56.888Z,-0.34
2022-12-04T04:05:26.881Z,-0.29
2022-12-04T04:08:18.169Z,-0.32
2022-12-04T04:10:46.575Z,-0.22
2022-12-04T04:13:37.467Z,-0.31
2022-12-04T04:16:28.460Z,-0.40
2022-12-04T04:19:17.222Z,-0.25
2022-12-04T04:22:04.540Z,-0.19
2022-12-04T04:24:40.160Z,-0.18
2022-12-04T04:27:08.511Z,-0.19
2022-12-04T04:29:37.010Z,-0.25
2022-12-04T04:32:13.338Z,-0.32
2022-12-04T04:34:49.910Z,-0.16
2022-12-04T04:37:29.999Z,-0.32
2022-12-04T04:40:05.958Z,-0.27
2022-12-04T04:42:39.196Z,-0.13
2022-12-04T04:45:15.006Z,-0.17
2022-12-04T04:47:49.985Z,0.01
2022-12-04T04:50:19.626Z,-0.28
2022-12-04T04:52:51.992Z,-0.13
2022-12-04T04:55:21.133Z,-0.22
2022-12-04T04:57:50.752Z,-0.28
2022-12-04T05:00:22.044Z,-0.30
2022-12-04T05:02:51.412Z,-0.16
2022-12-04T05:05:19.470Z,-0.08
2022-12-04T05:07:47.602Z,-0.14
2022-12-04T05:10:15.580Z,-0.10
2022-12-04T05:12:43.506Z,-0.09
2022-12-04T05:15:12.186Z,-0.12
2022-12-04T05:17:40.182Z,-0.10
2022-12-04T05:20:11.738Z,-0.23
2022-12-04T05:22:39.633Z,-0.09
2022-12-04T05:25:08.386Z,0.03
2022-12-04T05:27:36.312Z,-0.07
2022-12-04T05:30:05.265Z,0.01
2022-12-04T05:32:33.165Z,-0.17
2022-12-04T05:35:01.642Z,-0.01
2022-12-04T05:37:32.378Z,-0.08
2022-12-04T05:40:00.284Z,-0.10
2022-12-04T05:42:28.151Z,0.05
2022-12-04T05:44:56.112Z,0.02
2022-12-04T05:47:24.012Z,0.05
2022-12-04T05:49:52.229Z,0.06
2022-12-04T05:52:20.299Z,0.03
2022-12-04T05:54:49.520Z,-0.14
2022-12-04T05:57:17.350Z,-0.03
2022-12-04T05:59:45.267Z,-0.08
2022-12-04T06:02:13.216Z,-0.02
2022-12-04T06:04:41.199Z,-0.03
2022-12-04T06:07:10.573Z,-0.11
2022-12-04T06:09:39.058Z,-0.07
2022-12-04T06:12:08.518Z,-0.05
2022-12-04T06:14:39.783Z,-0.02
2022-12-04T06:17:08.290Z,0.10
2022-12-04T06:19:36.548Z,0.07
2022-12-04T06:22:05.022Z,0.11
2022-12-04T06:24:33.024Z,0.12
2022-12-04T06:27:26.633Z,0.14
2022-12-04T06:29:51.006Z,0.10
2022-12-04T06:32:21.841Z,-0.01
2022-12-04T06:34:52.503Z,0.10
2022-12-04T06:37:20.800Z,0.04
2022-12-04T06:39:48.723Z,0.25
2022-12-04T06:42:16.897Z,0.18
2022-12-04T06:44:44.859Z,0.10
2022-12-04T06:47:14.127Z,0.00
2022-12-04T06:49:42.207Z,-0.01
2022-12-04T06:52:10.110Z,0.05
2022-12-04T06:54:38.034Z,0.12
2022-12-04T06:57:05.940Z,0.03
2022-12-04T06:59:34.025Z,0.19
2022-12-04T07:02:02.066Z,0.37
2022-12-04T07:04:31.373Z,0.12
2022-12-04T07:06:59.337Z,0.24
2022-12-04T07:09:27.453Z,0.24
2022-12-04T07:11:55.446Z,0.03
2022-12-04T07:14:23.375Z,0.11
2022-12-04T07:16:51.449Z,0.18
2022-12-04T07:19:19.516Z,0.40
2022-12-04T07:21:48.814Z,0.34
2022-12-04T07:24:18.132Z,0.34
2022-12-04T07:26:46.301Z,0.25
2022-12-04T07:29:14.567Z,0.38
2022-12-04T07:31:44.173Z,0.49
2022-12-04T07:34:12.274Z,0.25
2022-12-04T07:36:41.270Z,0.20
2022-12-04T07:39:10.525Z,0.29
2022-12-04T07:41:38.535Z,0.51
2022-12-04T07:44:08.713Z,0.40
2022-12-04T07:46:36.629Z,0.84
2022-12-04T07:49:04.612Z,0.36
2022-12-04T07:51:32.570Z,0.52
2022-12-04T07:54:03.629Z,0.48
2022-12-04T07:56:37.846Z,0.49
2022-12-04T07:59:05.877Z,0.35
2022-12-04T08:01:34.262Z,0.32
2022-12-04T08:05:27.729Z,0.49
2022-12-04T08:07:55.690Z,0.47
2022-12-04T08:10:23.896Z,0.44
2022-12-04T08:12:51.779Z,0.50
2022-12-04T08:15:19.631Z,0.30
2022-12-04T08:17:47.604Z,0.41
2022-12-04T08:20:16.268Z,0.44
2022-12-04T08:22:45.500Z,0.54
2022-12-04T08:25:13.425Z,0.56
2022-12-04T08:27:47.741Z,0.30
2022-12-04T08:30:16.073Z,0.43
2022-12-04T08:32:44.018Z,0.57
2022-12-04T08:35:11.959Z,0.55
2022-12-04T08:37:39.937Z,0.65
2022-12-04T08:40:11.527Z,0.59
2022-12-04T08:42:39.507Z,0.55
2022-12-04T08:45:08.767Z,0.57
2022-12-04T08:47:36.709Z,0.50
2022-12-04T08:50:05.437Z,0.53
2022-12-04T08:52:33.379Z,0.53
2022-12-04T08:55:01.285Z,0.51
2022-12-04T08:57:30.539Z,0.53
2022-12-04T08:59:58.751Z,0.62
2022-12-04T09:02:26.823Z,0.62
2022-12-04T09:04:57.570Z,0.63
2022-12-04T09:07:25.577Z,0.58
2022-12-04T09:09:53.504Z,0.58
2022-12-04T09:12:24.138Z,0.69
2022-12-04T09:14:53.408Z,0.65
2022-12-04T09:17:21.486Z,0.66
2022-12-04T09:19:50.036Z,0.60
2022-12-04T09:22:18.020Z,0.66
2022-12-04T09:24:45.869Z,0.69
2022-12-04T09:27:15.111Z,0.65
2022-12-04T09:29:43.125Z,0.70
2022-12-04T09:32:12.409Z,0.73
2022-12-04T09:34:47.047Z,0.76
2022-12-04T09:37:18.910Z,0.67
2022-12-04T09:39:47.478Z,0.81
2022-12-04T09:42:36.829Z,0.83
2022-12-04T09:45:11.835Z,0.77
2022-12-04T09:47:45.549Z,0.80
2022-12-04T09:50:17.862Z,0.83
2022-12-04T09:52:51.962Z,0.75
2022-12-04T09:55:25.330Z,0.87
2022-12-04T09:58:01.492Z,0.87
2022-12-04T10:00:33.511Z,0.90
2022-12-04T10:03:06.423Z,0.88
2022-12-04T10:05:50.528Z,0.86
2022-12-04T10:08:23.469Z,0.74
2022-12-04T10:11:00.566Z,0.88
2022-12-04T10:13:58.262Z,1.03
2022-12-04T10:16:34.489Z,1.01
2022-12-04T10:19:09.309Z,1.02
2022-12-04T10:21:50.893Z,0.89
2022-12-04T10:24:27.121Z,0.92
2022-12-04T10:26:59.300Z,0.87
2022-12-04T10:29:31.742Z,0.93
2022-12-04T10:32:13.809Z,0.80
2022-12-04T10:34:46.238Z,0.97
2022-12-04T10:37:16.170Z,1.02
2022-12-04T10:39:49.049Z,0.90
2022-12-04T10:42:26.683Z,0.86
2022-12-04T10:44:55.075Z,1.06
2022-12-04T10:47:24.618Z,1.18
2022-12-04T10:49:59.858Z,1.08
2022-12-04T10:52:27.804Z,1.03
2022-12-04T10:54:59.303Z,0.90
2022-12-04T10:57:37.353Z,1.02
2022-12-04T11:00:24.051Z,1.00
2022-12-04T11:02:53.130Z,0.90
2022-12-04T11:05:29.440Z,0.83
2022-12-04T11:07:58.343Z,1.02
2022-12-04T11:10:32.933Z,1.09
2022-12-04T11:13:02.654Z,1.11
2022-12-04T11:15:31.291Z,1.09
2022-12-04T11:18:09.060Z,1.19
2022-12-04T11:20:40.752Z,1.13
2022-12-04T11:23:17.341Z,1.12
2022-12-04T11:25:47.807Z,1.14
2022-12-04T11:28:40.163Z,1.13
2022-12-04T11:31:12.051Z,1.06
2022-12-04T11:33:44.201Z,1.17
2022-12-04T11:36:21.869Z,1.15
2022-12-04T11:38:50.700Z,1.14
2022-12-04T11:41:27.078Z,1.23
2022-12-04T11:43:59.539Z,1.30
2022-12-04T11:46:30.812Z,1.29
2022-12-04T11:48:59.082Z,1.24
2022-12-04T11:51:40.867Z,1.21
2022-12-04T11:54:21.618Z,1.15
2022-12-04T11:56:59.845Z,1.24
2022-12-04T11:59:48.759Z,1.19
2022-12-04T12:02:34.218Z,1.31
2022-12-04T12:05:28.434Z,1.28
2022-12-04T12:08:06.948Z,1.31
2022-12-04T12:10:45.008Z,1.29
2022-12-04T12:13:19.699Z,1.31
2022-12-04T12:15:56.725Z,1.33
2022-12-04T12:18:44.883Z,1.48
2022-12-04T12:21:21.426Z,1.39
2022-12-04T12:24:08.284Z,1.38
2022-12-04T12:26:46.369Z,1.43
2022-12-04T12:29:27.894Z,1.50
2022-12-04T12:32:09.914Z,1.41
2022-12-04T12:34:41.499Z,1.37
2022-12-04T12:37:17.969Z,1.39
2022-12-04T12:39:56.793Z,1.39
2022-12-04T12:42:31.732Z,1.45
2022-12-04T12:45:05.730Z,1.42
2022-12-04T12:47:41.953Z,1.43
2022-12-04T12:50:16.662Z,1.43
2022-12-04T12:52:52.708Z,1.39
2022-12-04T12:55:27.017Z,1.36
2022-12-04T12:58:02.325Z,1.39
2022-12-04T13:00:33.335Z,1.44
2022-12-04T13:03:04.900Z,1.43
2022-12-04T13:05:38.616Z,1.33
2022-12-04T13:08:18.049Z,1.47
2022-12-04T13:10:51.123Z,1.46
2022-12-04T13:13:27.406Z,1.50
2022-12-04T13:16:00.396Z,1.50
2022-12-04T13:18:31.504Z,1.53
2022-12-04T13:21:03.217Z,1.48
2022-12-04T13:23:47.955Z,1.44
2022-12-04T13:26:30.815Z,1.48
2022-12-04T13:29:09.845Z,1.54
2022-12-04T13:31:53.092Z,1.42
2022-12-04T13:34:45.307Z,1.57
2022-12-04T13:37:45.190Z,1.56
2022-12-04T13:40:38.617Z,1.62
2022-12-04T13:43:28.879Z,1.85
2022-12-04T13:46:00.309Z,1.79
2022-12-04T13:48:36.433Z,1.84
2022-12-04T13:51:23.384Z,1.65
2022-12-04T13:54:03.194Z,1.72
2022-12-04T13:56:32.841Z,1.51
2022-12-04T13:59:06.355Z,1.57
2022-12-04T14:01:40.338Z,1.52
2022-12-04T14:04:08.932Z,1.67
2022-12-04T14:06:40.351Z,1.63
2022-12-04T14:09:19.527Z,1.57
2022-12-04T14:11:52.290Z,1.64
2022-12-04T14:14:29.490Z,1.58
2022-12-04T14:17:03.160Z,1.53
2022-12-04T14:19:35.542Z,1.51
2022-12-04T14:22:04.586Z,1.46
2022-12-04T14:24:36.140Z,1.53
2022-12-04T14:27:24.936Z,1.54
2022-12-04T14:29:57.951Z,1.61
2022-12-04T14:32:29.063Z,1.54
2022-12-04T14:34:58.926Z,1.55
2022-12-04T14:37:32.070Z,1.65
2022-12-04T14:40:01.742Z,1.61
2022-12-04T14:42:37.692Z,1.55
2022-12-04T14:45:22.537Z,1.47
2022-12-04T14:48:16.952Z,1.44
2022-12-04T14:50:55.529Z,1.45
2022-12-04T14:53:36.078Z,1.54
2022-12-04T14:56:18.919Z,1.53
2022-12-04T14:58:47.203Z,1.50
2022-12-04T15:01:28.962Z,1.52
2022-12-04T15:04:03.899Z,1.50
2022-12-04T15:06:34.819Z,1.56
2022-12-04T15:09:23.082Z,1.60
2022-12-04T15:12:13.744Z,1.82
2022-12-04T15:14:43.526Z,1.61
2022-12-04T15:17:19.379Z,1.64
2022-12-04T15:19:48.711Z,1.57
2022-12-04T15:22:24.163Z,1.57
2022-12-04T15:24:55.918Z,1.64
2022-12-04T15:27:32.622Z,1.59
2022-12-04T15:30:05.393Z,1.42
2022-12-04T15:32:35.485Z,1.40
2022-12-04T15:35:06.997Z,1.51
2022-12-04T15:37:38.164Z,1.51
2022-12-04T15:40:07.990Z,1.52
2022-12-04T15:42:36.175Z,1.54
2022-12-04T15:45:26.359Z,1.58
2022-12-04T15:47:57.180Z,1.54
2022-12-04T15:50:28.040Z,1.64
2022-12-04T15:53:00.766Z,1.65
2022-12-04T15:55:31.792Z,1.73
2022-12-04T15:58:05.831Z,1.75
2022-12-04T16:00:37.288Z,1.66
2022-12-04T16:03:22.814Z,1.63
2022-12-04T16:05:50.991Z,1.72
2022-12-04T16:08:27.090Z,1.81
2022-12-04T16:11:00.484Z,1.65
2022-12-04T16:13:32.284Z,1.65
2022-12-04T16:16:01.332Z,1.60
2022-12-04T16:18:30.820Z,1.61
2022-12-04T16:20:58.913Z,1.55
2022-12-04T16:23:30.304Z,1.68
2022-12-04T16:25:58.299Z,1.64
2022-12-04T16:28:26.305Z,1.67
2022-12-04T16:30:54.674Z,1.64
2022-12-04T16:33:22.769Z,1.68
2022-12-04T16:35:52.097Z,1.66
2022-12-04T16:38:22.598Z,1.75
2022-12-04T16:40:50.713Z,1.76
2022-12-04T16:43:22.116Z,1.72
2022-12-04T16:45:53.362Z,1.75
2022-12-04T16:48:21.463Z,1.72
2022-12-04T16:50:49.619Z,2.11
2022-12-04T16:53:21.172Z,1.86
2022-12-04T16:55:50.872Z,1.82
2022-12-04T16:58:20.290Z,1.77
2022-12-04T17:00:53.270Z,1.79
2022-12-04T17:03:25.575Z,1.82
2022-12-04T17:05:53.706Z,1.78
2022-12-04T17:08:23.971Z,1.77
2022-12-04T17:10:52.988Z,1.79
2022-12-04T17:13:22.255Z,1.76
2022-12-04T17:15:53.460Z,1.77
2022-12-04T17:18:28.708Z,1.73
2022-12-04T17:20:58.598Z,1.66
2022-12-04T17:23:28.265Z,1.79
2022-12-04T17:25:56.331Z,1.79
2022-12-04T17:28:24.495Z,1.73
2022-12-04T17:30:52.498Z,1.77
2022-12-04T17:33:23.295Z,1.78
2022-12-04T17:35:53.047Z,1.67
2022-12-04T17:38:23.528Z,1.83
2022-12-04T17:41:01.121Z,1.81
2022-12-04T17:43:32.073Z,2.18
2022-12-04T17:46:00.725Z,2.23
2022-12-04T17:48:30.075Z,2.17
2022-12-04T17:51:08.421Z,2.15
2022-12-04T17:53:39.260Z,2.02
2022-12-04T17:56:11.475Z,2.08
2022-12-04T17:58:39.893Z,2.04
2022-12-04T18:01:12.491Z,2.03
2022-12-04T18:03:41.243Z,2.10
2022-12-04T18:06:14.808Z,2.44
2022-12-04T18:08:48.294Z,2.32
2022-12-04T18:11:21.427Z,1.93
2022-12-04T18:13:50.117Z,1.96
2022-12-04T18:16:20.241Z,1.86
2022-12-04T18:18:48.618Z,2.00
2022-12-04T18:21:19.386Z,1.91
2022-12-04T18:23:47.430Z,1.93
2022-12-04T18:26:17.436Z,1.94
2022-12-04T18:28:47.703Z,1.93
2022-12-04T18:31:21.344Z,1.91
2022-12-04T18:33:50.261Z,1.93
2022-12-04T18:36:21.087Z,2.00
2022-12-04T18:38:54.824Z,2.02
2022-12-04T18:41:22.950Z,1.98
2022-12-04T18:43:52.521Z,1.98
2022-12-04T18:46:23.631Z,1.89
2022-12-04T18:48:54.597Z,2.01
2022-12-04T18:51:24.503Z,1.97
2022-12-04T18:53:55.319Z,1.95
2022-12-04T18:56:25.867Z,1.97
2022-12-04T18:58:59.986Z,2.00
2022-12-04T19:01:29.018Z,2.02
2022-12-04T19:04:00.784Z,1.93
2022-12-04T19:06:30.870Z,1.99
2022-12-04T19:09:01.347Z,1.98
2022-12-04T19:11:29.643Z,2.02
2022-12-04T19:13:59.552Z,1.97
2022-12-04T19:16:28.261Z,2.10
2022-12-04T19:18:57.348Z,1.99
2022-12-04T19:21:25.335Z,2.07
2022-12-04T19:23:58.136Z,2.12
2022-12-04T19:26:26.811Z,2.23
2022-12-04T19:28:55.921Z,2.20
2022-12-04T19:31:27.627Z,2.14
2022-12-04T19:33:57.730Z,2.15
2022-12-04T19:36:26.326Z,2.14
2022-12-04T19:38:54.607Z,2.22
2022-12-04T19:41:25.654Z,2.26
2022-12-04T19:43:57.124Z,2.27
2022-12-04T19:46:29.065Z,2.34
2022-12-04T19:49:01.463Z,2.27
2022-12-04T19:51:32.011Z,2.33
2022-12-04T19:54:01.210Z,2.28
2022-12-04T19:56:31.604Z,2.26
2022-12-04T19:59:03.086Z,2.39
2022-12-04T20:01:33.377Z,2.36
2022-12-04T20:04:03.588Z,2.33
2022-12-04T20:06:35.687Z,2.33
2022-12-04T20:09:06.184Z,2.36
2022-12-04T20:11:35.193Z,2.29
2022-12-04T20:14:04.214Z,2.29
2022-12-04T20:16:35.712Z,2.40
2022-12-04T20:19:06.204Z,2.36
2022-12-04T20:21:35.127Z,2.38
2022-12-04T20:24:06.584Z,2.44
2022-12-04T20:26:37.464Z,2.28
2022-12-04T20:29:07.261Z,2.36
2022-12-04T20:31:39.648Z,2.31
2022-12-04T20:34:11.479Z,2.38
2022-12-04T20:36:41.654Z,2.32
2022-12-04T20:39:11.471Z,2.39
2022-12-04T20:41:39.963Z,2.36
2022-12-04T20:44:12.421Z,2.29
2022-12-04T20:46:42.560Z,2.33
2022-12-04T20:49:20.705Z,2.31
2022-12-04T20:51:51.004Z,2.32
2022-12-04T20:54:21.371Z,2.32
2022-12-04T20:56:49.863Z,2.32
2022-12-04T20:59:19.309Z,2.20
2022-12-04T21:01:50.466Z,2.34
2022-12-04T21:04:19.104Z,2.72
2022-12-04T21:06:47.783Z,2.28
2022-12-04T21:09:18.057Z,2.22
2022-12-04T21:11:49.204Z,2.16
2022-12-04T21:14:36.638Z,2.33
2022-12-04T21:17:07.429Z,2.22
2022-12-04T21:19:35.764Z,2.24
2022-12-04T21:22:04.109Z,2.34
2022-12-04T21:24:38.389Z,2.31
2022-12-04T21:27:07.760Z,2.28
2022-12-04T21:29:35.986Z,2.24
2022-12-04T21:32:04.623Z,2.26
2022-12-04T21:34:34.647Z,2.29
2022-12-04T21:37:02.597Z,2.28
2022-12-04T21:39:30.773Z,2.27
2022-12-04T21:42:18.731Z,2.21
2022-12-04T21:44:46.852Z,2.30
2022-12-04T21:47:16.740Z,2.30
2022-12-04T21:49:48.943Z,2.31
2022-12-04T21:52:27.897Z,2.24
2022-12-04T21:54:56.648Z,2.28
2022-12-04T21:57:25.317Z,2.27
2022-12-04T21:59:57.736Z,2.23
2022-12-04T22:02:26.041Z,2.21
2022-12-04T22:04:55.713Z,2.23
2022-12-04T22:07:23.868Z,2.26
2022-12-04T22:09:51.825Z,2.17
2022-12-04T22:12:47.717Z,2.23
2022-12-04T22:15:09.022Z,2.23
2022-12-04T22:17:39.241Z,2.24
2022-12-04T22:20:09.528Z,2.21
2022-12-04T22:22:37.535Z,2.21
2022-12-04T22:25:06.017Z,2.27
2022-12-04T22:27:34.132Z,2.19
2022-12-04T22:30:02.484Z,2.18
2022-12-04T22:32:32.312Z,2.26
2022-12-04T22:35:00.339Z,2.28
2022-12-04T22:37:29.576Z,2.25
2022-12-04T22:40:00.436Z,2.28
2022-12-04T22:42:28.411Z,2.02
2022-12-04T22:44:56.408Z,2.16
2022-12-04T22:47:24.416Z,2.14
2022-12-04T22:49:52.360Z,2.17
2022-12-04T22:52:20.469Z,2.17
2022-12-04T22:54:51.171Z,2.20
2022-12-04T22:57:19.435Z,2.21
2022-12-04T22:59:47.320Z,2.16
2022-12-04T23:02:15.226Z,2.17
2022-12-04T23:04:43.773Z,2.20
2022-12-04T23:07:11.848Z,2.26
2022-12-04T23:09:40.104Z,2.28
2022-12-04T23:12:10.053Z,2.30
2022-12-04T23:14:37.968Z,2.32
2022-12-04T23:17:06.145Z,2.27
2022-12-04T23:19:34.309Z,2.24
2022-12-04T23:22:02.308Z,2.16
2022-12-04T23:24:30.244Z,2.14
2022-12-04T23:26:58.284Z,2.19
2022-12-04T23:29:51.956Z,2.22
2022-12-04T23:32:16.389Z,2.12
2022-12-04T23:34:44.436Z,2.20
2022-12-04T23:37:12.482Z,2.22
2022-12-04T23:39:40.512Z,2.25
2022-12-04T23:42:08.508Z,2.18
2022-12-04T23:44:37.989Z,2.24
2022-12-04T23:47:05.987Z,2.20
2022-12-04T23:49:34.187Z,2.13
2022-12-04T23:52:02.529Z,2.29
2022-12-04T23:54:34.923Z,2.24
2022-12-04T23:57:03.262Z,2.18
2022-12-04T23:59:31.595Z,2.31
